Danville, Alabama
Current Conditions -  °F | °C
As of 1:35 PM on Thursday 23 Oct 2014 (Local Time) from KCMD Reporting Station
Clear Clear  
Wind Chill: 65°   Ceiling: Unl
Heat Index: 65°   Visibility: 10mi
Dew Point: 44°   Wind: 3mph
Humidity: 45%   Direction: 310°NW
Pressure: 30.13"   Gusts: NA
Location:  34.41°N, 87.08°W
Report Text: KCMD 231835Z AUTO 31003KT 10SM CLR 19/06 A3013 RMK AO2 T01850064
Loading
Personal Weather Stations






























Interactive Weather Map
Tropical Storm Tracking
New forecast layout! Learn more

10-Day Weather Forecast

Advertisements
Track Severe Weather on mobile